Terminal Aerodrome Forecast
Issued by NWS

Home | Current Version | Previous Version | Graphics & Text | Print | Product List | Glossary On
Versions: 1 2 3 4 5 6 7 8 9 10 11 12 13 14 15 16 17 18 19 20 21 22 23 24
000
FTUS43 KBIS 301120
TAFMOT
TAF
KMOT 301120Z 3012/3112 VRB03KT P6SM FEW200
     FM301600 15004KT P6SM BKN150
     FM301900 33007KT 6SM -SHRA VCTS OVC060CB
      TEMPO 3020/3022 3SM -TSRA BKN040CB
     FM310400 32010G18KT 6SM SHRA VCTS OVC030CB WS020/02040KT
     FM310700 30011KT P6SM VCSH BKN015 WS020/35040KT=

USA.gov is the U.S. government's official web portal to all federal, state and local government web resources and services.